createdAt,value
2023-01-11T00:00:36.496Z,100.00
2023-01-11T00:03:04.505Z,100.00
2023-01-11T00:05:31.708Z,100.00
2023-01-11T00:07:59.063Z,100.00
2023-01-11T00:10:26.220Z,100.00
2023-01-11T00:12:53.202Z,100.00
2023-01-11T00:15:20.259Z,100.00
2023-01-11T00:17:47.311Z,100.00
2023-01-11T00:20:14.408Z,100.00
2023-01-11T00:22:41.464Z,100.00
2023-01-11T00:25:09.028Z,100.00
2023-01-11T00:27:36.055Z,100.00
2023-01-11T00:30:03.227Z,100.00
2023-01-11T00:32:30.515Z,100.00
2023-01-11T00:34:57.541Z,100.00
2023-01-11T00:37:24.759Z,100.00
2023-01-11T00:39:52.662Z,100.00
2023-01-11T00:42:38.412Z,100.00
2023-01-11T00:45:25.296Z,100.00
2023-01-11T00:47:58.338Z,100.00
2023-01-11T00:50:26.083Z,100.00
2023-01-11T00:52:53.063Z,100.00
2023-01-11T00:55:20.069Z,100.00
2023-01-11T00:57:47.047Z,100.00
2023-01-11T01:00:14.290Z,100.00
2023-01-11T01:02:41.474Z,100.00
2023-01-11T01:05:08.879Z,100.00
2023-01-11T01:07:36.754Z,100.00
2023-01-11T01:10:04.829Z,100.00
2023-01-11T01:12:50.607Z,100.00
2023-01-11T01:15:17.830Z,100.00
2023-01-11T01:17:45.422Z,100.00
2023-01-11T01:20:13.276Z,100.00
2023-01-11T01:22:40.478Z,100.00
2023-01-11T01:25:08.089Z,100.00
2023-01-11T01:27:35.244Z,100.00
2023-01-11T01:30:02.388Z,100.00
2023-01-11T01:32:29.845Z,100.00
2023-01-11T01:34:56.892Z,100.00
2023-01-11T01:37:24.047Z,100.00
2023-01-11T01:39:51.294Z,100.00
2023-01-11T01:42:19.858Z,100.00
2023-01-11T01:45:03.956Z,100.00
2023-01-11T01:47:49.559Z,100.00
2023-01-11T01:50:22.616Z,100.00
2023-01-11T01:52:52.081Z,100.00
2023-01-11T01:55:34.375Z,100.00
2023-01-11T01:58:02.692Z,100.00
2023-01-11T02:00:30.119Z,100.00
2023-01-11T02:02:58.022Z,100.00
2023-01-11T02:05:25.156Z,100.00
2023-01-11T02:07:54.757Z,100.00
2023-01-11T02:10:22.676Z,100.00
2023-01-11T02:13:00.818Z,100.00
2023-01-11T02:15:28.228Z,100.00
2023-01-11T02:17:55.372Z,100.00
2023-01-11T02:20:27.421Z,100.00
2023-01-11T02:23:19.175Z,100.00
2023-01-11T02:25:46.415Z,100.00
2023-01-11T02:28:33.305Z,100.00
2023-01-11T02:31:06.546Z,100.00
2023-01-11T02:33:39.992Z,100.00
2023-01-11T02:36:46.289Z,100.00
2023-01-11T02:39:51.399Z,100.00
2023-01-11T02:42:40.322Z,100.00
2023-01-11T02:45:29.549Z,100.00
2023-01-11T02:48:02.331Z,100.00
2023-01-11T02:50:38.400Z,100.00
2023-01-11T02:53:26.059Z,100.00
2023-01-11T02:55:56.112Z,100.00
2023-01-11T02:58:23.712Z,100.00
2023-01-11T03:00:50.871Z,100.00
2023-01-11T03:03:20.261Z,100.00
2023-01-11T03:06:11.877Z,100.00
2023-01-11T03:09:05.031Z,100.00
2023-01-11T03:12:09.991Z,100.00
2023-01-11T03:14:51.071Z,100.00
2023-01-11T03:17:28.786Z,100.00
2023-01-11T03:20:26.567Z,100.00
2023-01-11T03:23:19.424Z,100.00
2023-01-11T03:26:16.533Z,100.00
2023-01-11T03:28:54.079Z,100.00
2023-01-11T03:31:22.785Z,100.00
2023-01-11T03:34:05.303Z,100.00
2023-01-11T03:36:39.363Z,100.00
2023-01-11T03:39:16.541Z,100.00
2023-01-11T03:41:43.632Z,100.00
2023-01-11T03:44:11.297Z,100.00
2023-01-11T03:46:44.346Z,100.00
2023-01-11T03:49:15.867Z,100.00
2023-01-11T03:51:44.624Z,100.00
2023-01-11T03:54:15.285Z,100.00
2023-01-11T03:57:00.635Z,100.00
2023-01-11T03:59:28.157Z,100.00
2023-01-11T04:01:55.814Z,100.00
2023-01-11T04:04:23.302Z,100.00
2023-01-11T04:06:50.436Z,100.00
2023-01-11T04:09:17.826Z,100.00
2023-01-11T04:11:45.376Z,100.00
2023-01-11T04:14:12.440Z,100.00
2023-01-11T04:16:39.558Z,100.00
2023-01-11T04:19:06.727Z,100.00
2023-01-11T04:21:33.873Z,100.00
2023-01-11T04:24:00.919Z,100.00
2023-01-11T04:26:28.072Z,100.00
2023-01-11T04:28:55.181Z,100.00
2023-01-11T04:31:22.250Z,100.00
2023-01-11T04:33:49.468Z,100.00
2023-01-11T04:36:16.596Z,100.00
2023-01-11T04:38:43.565Z,100.00
2023-01-11T04:41:29.303Z,100.00
2023-01-11T04:43:56.776Z,100.00
2023-01-11T04:46:24.529Z,100.00
2023-01-11T04:48:53.119Z,100.00
2023-01-11T04:51:20.126Z,100.00
2023-01-11T04:53:49.263Z,100.00
2023-01-11T04:56:16.642Z,100.00
2023-01-11T04:58:43.969Z,100.00
2023-01-11T05:01:12.031Z,100.00
2023-01-11T05:03:39.294Z,100.00
2023-01-11T05:06:07.570Z,100.00
2023-01-11T05:08:34.719Z,100.00
2023-01-11T05:11:03.823Z,100.00
2023-01-11T05:13:43.039Z,100.00
2023-01-11T05:16:24.100Z,100.00
2023-01-11T05:18:59.530Z,100.00
2023-01-11T05:21:31.888Z,100.00
2023-01-11T05:23:59.841Z,100.00
2023-01-11T05:26:37.200Z,100.00
2023-01-11T05:29:16.335Z,100.00
2023-01-11T05:31:43.952Z,100.00
2023-01-11T05:34:12.488Z,100.00
2023-01-11T05:36:39.742Z,100.00
2023-01-11T05:39:07.096Z,100.00
2023-01-11T05:41:34.224Z,100.00
2023-01-11T05:44:20.241Z,100.00
2023-01-11T05:46:47.365Z,100.00
2023-01-11T05:49:14.737Z,100.00
2023-01-11T05:51:42.548Z,100.00
2023-01-11T05:54:11.882Z,100.00
2023-01-11T05:56:39.358Z,100.00
2023-01-11T05:59:07.415Z,100.00
2023-01-11T06:01:34.978Z,100.00
2023-01-11T06:04:02.014Z,100.00
2023-01-11T06:06:29.083Z,100.00
2023-01-11T06:08:56.316Z,100.00
2023-01-11T06:11:23.362Z,100.00
2023-01-11T06:13:50.412Z,100.00
2023-01-11T06:16:19.303Z,100.00
2023-01-11T06:18:48.010Z,100.00
2023-01-11T06:21:15.554Z,100.00
2023-01-11T06:23:45.292Z,100.00
2023-01-11T06:26:15.302Z,100.00
2023-01-11T06:28:42.746Z,100.00
2023-01-11T06:31:09.845Z,100.00
2023-01-11T06:34:24.251Z,100.00
2023-01-11T06:36:51.286Z,100.00
2023-01-11T06:39:18.980Z,100.00
2023-01-11T06:41:46.094Z,100.00
2023-01-11T06:44:13.252Z,100.00
2023-01-11T06:46:40.301Z,100.00
2023-01-11T06:49:07.548Z,100.00
2023-01-11T06:51:34.608Z,100.00
2023-01-11T06:54:01.744Z,100.00
2023-01-11T06:56:28.795Z,100.00
2023-01-11T06:58:55.956Z,100.00
2023-01-11T07:01:24.920Z,100.00
2023-01-11T07:03:52.462Z,100.00
2023-01-11T07:06:19.651Z,100.00
2023-01-11T07:08:47.014Z,100.00
2023-01-11T07:11:14.160Z,100.00
2023-01-11T07:13:41.353Z,100.00
2023-01-11T07:16:08.522Z,100.00
2023-01-11T07:18:35.812Z,100.00
2023-01-11T07:21:02.880Z,100.00
2023-01-11T07:23:29.909Z,99.91
2023-01-11T07:25:57.887Z,98.25
2023-01-11T07:28:25.036Z,95.76
2023-01-11T07:30:58.810Z,93.50
2023-01-11T07:33:27.201Z,89.76
2023-01-11T07:35:54.403Z,88.54
2023-01-11T07:38:21.618Z,88.43
2023-01-11T07:40:49.181Z,87.53
2023-01-11T07:43:18.531Z,87.97
2023-01-11T07:45:49.450Z,87.74
2023-01-11T07:48:25.281Z,85.89
2023-01-11T07:50:53.141Z,85.38
2023-01-11T07:53:20.505Z,84.18
2023-01-11T07:55:47.662Z,83.74
2023-01-11T07:58:14.820Z,82.30
2023-01-11T08:00:42.034Z,82.12
2023-01-11T08:03:09.570Z,83.05
2023-01-11T08:05:36.865Z,82.20
2023-01-11T08:08:04.639Z,83.28
2023-01-11T08:10:31.711Z,84.34
2023-01-11T08:13:17.868Z,81.80
2023-01-11T08:15:45.205Z,80.60
2023-01-11T08:18:12.596Z,79.37
2023-01-11T08:20:40.088Z,78.53
2023-01-11T08:23:09.245Z,78.28
2023-01-11T08:25:36.360Z,78.23
2023-01-11T08:28:04.650Z,76.81
2023-01-11T08:30:32.457Z,77.61
2023-01-11T08:33:01.372Z,77.49
2023-01-11T08:35:28.559Z,76.93
2023-01-11T08:37:55.581Z,77.75
2023-01-11T08:40:24.186Z,79.57
2023-01-11T08:42:57.899Z,79.68
2023-01-11T08:45:25.702Z,77.35
2023-01-11T08:47:53.846Z,78.97
2023-01-11T08:50:22.217Z,79.89
2023-01-11T08:52:51.010Z,78.68
2023-01-11T08:55:19.216Z,79.36
2023-01-11T08:57:46.894Z,79.57
2023-01-11T09:00:14.935Z,78.07
2023-01-11T09:02:42.087Z,77.78
2023-01-11T09:05:09.828Z,78.50
2023-01-11T09:07:37.109Z,79.24
2023-01-11T09:10:05.177Z,81.10
2023-01-11T09:12:32.966Z,81.69
2023-01-11T09:15:00.368Z,80.14
2023-01-11T09:17:27.634Z,80.04
2023-01-11T09:19:55.409Z,81.17
2023-01-11T09:22:22.462Z,81.28
2023-01-11T09:24:49.682Z,83.55
2023-01-11T09:27:17.002Z,83.99
2023-01-11T09:29:44.075Z,84.24
2023-01-11T09:32:11.067Z,86.28
2023-01-11T09:34:39.458Z,85.09
2023-01-11T09:37:07.334Z,86.14
2023-01-11T09:39:35.423Z,86.76
2023-01-11T09:42:22.149Z,88.72
2023-01-11T09:44:51.046Z,90.94
2023-01-11T09:47:20.551Z,92.66
2023-01-11T09:49:52.525Z,93.92
2023-01-11T09:52:19.660Z,95.40
2023-01-11T09:54:47.578Z,99.33
2023-01-11T09:57:37.685Z,100.00
2023-01-11T10:00:12.750Z,100.00
2023-01-11T10:03:12.455Z,99.18
2023-01-11T10:05:50.299Z,99.00
2023-01-11T10:18:26.288Z,100.00
2023-01-11T10:18:26.562Z,100.00
2023-01-11T10:20:35.490Z,100.00
2023-01-11T10:23:06.577Z,100.00
2023-01-11T10:25:41.646Z,100.00
2023-01-11T10:28:27.858Z,100.00
2023-01-11T10:30:58.959Z,100.00
2023-01-11T10:33:54.973Z,100.00
2023-01-11T10:37:13.475Z,100.00
2023-01-11T10:40:26.773Z,100.00
2023-01-11T10:43:03.486Z,100.00
2023-01-11T10:45:51.265Z,100.00
2023-01-11T10:48:25.526Z,100.00
2023-01-11T10:51:28.122Z,100.00
2023-01-11T10:53:59.738Z,100.00
2023-01-11T10:56:42.915Z,100.00
2023-01-11T10:59:27.085Z,100.00
2023-01-11T11:02:34.448Z,100.00
2023-01-11T11:05:05.649Z,100.00
2023-01-11T11:08:06.971Z,100.00
2023-01-11T11:10:43.654Z,100.00
2023-01-11T11:13:16.794Z,100.00
2023-01-11T11:16:23.924Z,100.00
2023-01-11T11:18:55.820Z,100.00
2023-01-11T11:21:29.828Z,100.00
2023-01-11T11:24:03.501Z,100.00
2023-01-11T11:26:38.817Z,100.00
2023-01-11T11:29:10.421Z,100.00
2023-01-11T11:31:38.705Z,100.00
2023-01-11T11:34:13.810Z,100.00
2023-01-11T11:36:53.961Z,100.00
2023-01-11T11:39:30.906Z,100.00
2023-01-11T11:42:08.452Z,100.00
2023-01-11T11:44:35.751Z,100.00
2023-01-11T11:47:03.970Z,100.00
2023-01-11T11:49:32.584Z,100.00
2023-01-11T11:52:00.729Z,100.00
2023-01-11T11:54:32.649Z,100.00
2023-01-11T11:57:12.150Z,100.00
2023-01-11T11:59:39.281Z,100.00
2023-01-11T12:02:06.481Z,100.00
2023-01-11T12:04:47.538Z,100.00
2023-01-11T12:07:16.503Z,100.00
2023-01-11T12:09:55.787Z,100.00
2023-01-11T12:12:26.402Z,100.00
2023-01-11T12:15:15.763Z,100.00
2023-01-11T12:17:43.188Z,100.00
2023-01-11T12:20:19.489Z,100.00
2023-01-11T12:22:46.518Z,100.00
2023-01-11T12:25:25.827Z,100.00
2023-01-11T12:28:01.846Z,100.00
2023-01-11T12:30:41.937Z,100.00
2023-01-11T12:33:12.776Z,100.00
2023-01-11T12:36:03.222Z,100.00
2023-01-11T12:38:38.104Z,100.00
2023-01-11T12:41:11.385Z,100.00
2023-01-11T12:44:31.384Z,100.00
2023-01-11T12:47:05.714Z,100.00
2023-01-11T12:49:42.071Z,100.00
2023-01-11T12:52:31.136Z,100.00
2023-01-11T12:55:02.402Z,100.00
2023-01-11T12:58:02.152Z,100.00
2023-01-11T13:01:07.411Z,100.00
2023-01-11T13:03:35.107Z,100.00
2023-01-11T13:06:44.542Z,100.00
2023-01-11T13:09:44.051Z,100.00
2023-01-11T13:12:21.889Z,100.00
2023-01-11T13:15:14.209Z,100.00
2023-01-11T13:17:59.857Z,100.00
2023-01-11T13:20:30.916Z,100.00
2023-01-11T13:23:10.513Z,100.00
2023-01-11T13:25:39.670Z,100.00
2023-01-11T13:28:23.963Z,100.00
2023-01-11T13:30:51.570Z,100.00
2023-01-11T13:33:23.151Z,100.00
2023-01-11T13:35:56.974Z,100.00
2023-01-11T13:38:23.976Z,100.00
2023-01-11T13:40:53.381Z,100.00
2023-01-11T13:43:33.842Z,100.00
2023-01-11T13:46:05.942Z,100.00
2023-01-11T13:48:51.535Z,100.00
2023-01-11T13:51:21.644Z,100.00
2023-01-11T13:53:53.728Z,100.00
2023-01-11T13:56:24.943Z,100.00
2023-01-11T13:59:04.378Z,100.00
2023-01-11T14:02:30.412Z,100.00
2023-01-11T14:05:18.409Z,100.00
2023-01-11T14:07:48.658Z,100.00
2023-01-11T14:10:27.891Z,100.00
2023-01-11T14:12:59.257Z,100.00
2023-01-11T14:15:40.754Z,100.00
2023-01-11T14:18:13.448Z,100.00
2023-01-11T14:20:48.739Z,100.00
2023-01-11T14:23:20.044Z,100.00
2023-01-11T14:26:09.260Z,100.00
2023-01-11T14:28:46.446Z,100.00
2023-01-11T14:31:35.783Z,100.00
2023-01-11T14:34:15.489Z,100.00
2023-01-11T14:37:04.924Z,100.00
2023-01-11T14:39:44.978Z,100.00
2023-01-11T14:42:31.169Z,100.00
2023-01-11T14:45:30.790Z,100.00
2023-01-11T14:47:59.918Z,100.00
2023-01-11T14:50:48.981Z,100.00
2023-01-11T14:53:26.802Z,100.00
2023-01-11T14:55:54.048Z,100.00
2023-01-11T14:58:28.785Z,100.00
2023-01-11T15:00:56.182Z,100.00
2023-01-11T15:03:23.239Z,100.00
2023-01-11T15:06:10.450Z,100.00
2023-01-11T15:08:51.544Z,100.00
2023-01-11T15:11:25.845Z,100.00
2023-01-11T15:13:58.116Z,100.00
2023-01-11T15:16:43.910Z,100.00
2023-01-11T15:19:13.304Z,100.00
2023-01-11T15:21:41.907Z,100.00
2023-01-11T15:24:29.841Z,100.00
2023-01-11T15:26:58.569Z,100.00
2023-01-11T15:29:31.510Z,100.00
2023-01-11T15:32:02.107Z,100.00
2023-01-11T15:34:40.236Z,100.00
2023-01-11T15:37:45.477Z,100.00
2023-01-11T15:40:18.241Z,100.00
2023-01-11T15:43:05.492Z,100.00
2023-01-11T15:45:59.574Z,100.00
2023-01-11T15:48:30.603Z,100.00
2023-01-11T15:51:42.814Z,100.00
2023-01-11T15:54:31.739Z,100.00
2023-01-11T15:57:04.795Z,100.00
2023-01-11T15:59:50.273Z,100.00
2023-01-11T16:02:52.443Z,100.00
2023-01-11T16:05:25.106Z,100.00
2023-01-11T16:08:23.366Z,100.00
2023-01-11T16:11:16.666Z,100.00
2023-01-11T16:14:07.128Z,100.00
2023-01-11T16:16:40.457Z,100.00
2023-01-11T16:19:20.258Z,100.00
2023-01-11T16:21:52.460Z,100.00
2023-01-11T16:24:21.428Z,100.00
2023-01-11T16:27:00.289Z,100.00
2023-01-11T16:29:30.681Z,100.00
2023-01-11T16:31:59.774Z,100.00
2023-01-11T16:34:38.283Z,100.00
2023-01-11T16:37:20.938Z,100.00
2023-01-11T16:39:49.423Z,100.00
2023-01-11T16:42:16.540Z,100.00
2023-01-11T16:44:53.485Z,100.00
2023-01-11T16:47:21.499Z,100.00
2023-01-11T16:49:50.277Z,100.00
2023-01-11T16:52:34.913Z,100.00
2023-01-11T16:55:02.427Z,100.00
2023-01-11T16:57:36.155Z,100.00
2023-01-11T17:00:08.325Z,100.00
2023-01-11T17:02:40.429Z,100.00
2023-01-11T17:05:22.735Z,100.00
2023-01-11T17:07:49.991Z,100.00
2023-01-11T17:10:23.241Z,100.00
2023-01-11T17:13:08.147Z,100.00
2023-01-11T17:15:43.808Z,100.00
2023-01-11T17:18:10.898Z,100.00
2023-01-11T17:20:37.992Z,100.00
2023-01-11T17:23:05.084Z,100.00
2023-01-11T17:25:43.821Z,100.00
2023-01-11T17:28:16.829Z,100.00
2023-01-11T17:30:45.552Z,100.00
2023-01-11T17:33:26.240Z,100.00
2023-01-11T17:35:53.661Z,100.00
2023-01-11T17:38:22.301Z,100.00
2023-01-11T17:40:49.393Z,100.00
2023-01-11T17:43:43.133Z,100.00
2023-01-11T17:46:17.155Z,100.00
2023-01-11T17:48:58.079Z,100.00
2023-01-11T17:51:26.690Z,100.00
2023-01-11T17:53:53.792Z,100.00
2023-01-11T17:56:54.653Z,100.00
2023-01-11T17:59:26.425Z,100.00
2023-01-11T18:01:54.919Z,100.00
2023-01-11T18:04:22.737Z,100.00
2023-01-11T18:06:51.165Z,100.00
2023-01-11T18:09:22.700Z,100.00
2023-01-11T18:11:49.952Z,100.00
2023-01-11T18:14:28.063Z,100.00
2023-01-11T18:17:07.439Z,100.00
2023-01-11T18:19:42.615Z,100.00
2023-01-11T18:22:25.107Z,100.00
2023-01-11T18:24:56.425Z,100.00
2023-01-11T18:27:28.365Z,100.00
2023-01-11T18:29:57.206Z,100.00
2023-01-11T18:32:24.676Z,100.00
2023-01-11T18:34:53.057Z,100.00
2023-01-11T18:37:20.752Z,100.00
2023-01-11T18:39:47.878Z,100.00
2023-01-11T18:42:17.358Z,100.00
2023-01-11T18:44:47.172Z,100.00
2023-01-11T18:47:19.521Z,100.00
2023-01-11T18:49:47.078Z,100.00
2023-01-11T18:52:14.603Z,100.00
2023-01-11T18:54:42.123Z,100.00
2023-01-11T18:57:09.326Z,100.00
2023-01-11T18:59:37.036Z,100.00
2023-01-11T19:02:16.648Z,100.00
2023-01-11T19:04:44.243Z,100.00
2023-01-11T19:07:11.602Z,100.00
2023-01-11T19:09:39.074Z,100.00
2023-01-11T19:12:06.505Z,100.00
2023-01-11T19:14:33.762Z,100.00
2023-01-11T19:17:01.009Z,100.00
2023-01-11T19:19:28.058Z,100.00
2023-01-11T19:21:55.616Z,100.00
2023-01-11T19:24:22.772Z,100.00
2023-01-11T19:26:50.244Z,100.00
2023-01-11T19:29:19.322Z,100.00
2023-01-11T19:31:48.507Z,100.00
2023-01-11T19:34:16.011Z,100.00
2023-01-11T19:36:43.137Z,100.00
2023-01-11T19:39:10.808Z,100.00
2023-01-11T19:41:56.682Z,100.00
2023-01-11T19:44:32.274Z,100.00
2023-01-11T19:47:11.045Z,100.00
2023-01-11T19:49:39.754Z,100.00
2023-01-11T19:52:13.422Z,100.00
2023-01-11T19:54:42.409Z,100.00
2023-01-11T19:57:11.671Z,100.00
2023-01-11T19:59:39.212Z,100.00
2023-01-11T20:02:06.645Z,100.00
2023-01-11T20:04:33.893Z,100.00
2023-01-11T20:07:00.959Z,100.00
2023-01-11T20:09:28.303Z,100.00
2023-01-11T20:11:55.939Z,100.00
2023-01-11T20:14:23.324Z,100.00
2023-01-11T20:16:50.568Z,100.00
2023-01-11T20:19:17.800Z,100.00
2023-01-11T20:21:44.970Z,100.00
2023-01-11T20:24:13.043Z,100.00
2023-01-11T20:26:40.551Z,100.00
2023-01-11T20:29:07.751Z,100.00
2023-01-11T20:31:35.813Z,100.00
2023-01-11T20:34:10.071Z,100.00
2023-01-11T20:36:37.497Z,100.00
2023-01-11T20:39:04.685Z,100.00
2023-01-11T20:41:51.072Z,100.00
2023-01-11T20:44:24.046Z,100.00
2023-01-11T20:46:51.825Z,100.00
2023-01-11T20:49:19.276Z,100.00
2023-01-11T20:51:46.749Z,100.00
2023-01-11T20:54:13.890Z,100.00
2023-01-11T20:56:41.935Z,100.00
2023-01-11T21:01:37.582Z,100.00
2023-01-11T21:04:06.818Z,100.00
2023-01-11T21:06:34.753Z,100.00
2023-01-11T21:09:02.244Z,100.00
2023-01-11T21:11:31.422Z,100.00
2023-01-11T21:14:01.850Z,100.00
2023-01-11T21:16:29.380Z,100.00
2023-01-11T21:18:58.442Z,100.00
2023-01-11T21:21:26.011Z,100.00
2023-01-11T21:23:57.497Z,100.00
2023-01-11T21:26:24.944Z,100.00
2023-01-11T21:28:53.920Z,100.00
2023-01-11T21:31:21.554Z,100.00
2023-01-11T21:33:49.359Z,100.00
2023-01-11T21:36:18.398Z,100.00
2023-01-11T21:38:45.511Z,100.00
2023-01-11T21:41:14.609Z,100.00
2023-01-11T21:43:45.242Z,100.00
2023-01-11T21:46:12.708Z,100.00
2023-01-11T21:48:39.862Z,100.00
2023-01-11T21:51:10.204Z,100.00
2023-01-11T21:53:37.348Z,100.00
2023-01-11T21:56:05.587Z,100.00
2023-01-11T21:58:33.250Z,100.00
2023-01-11T22:01:00.568Z,100.00
2023-01-11T22:03:28.454Z,100.00
2023-01-11T22:06:02.322Z,100.00
2023-01-11T22:08:29.580Z,100.00
2023-01-11T22:10:58.547Z,100.00
2023-01-11T22:13:28.225Z,100.00
2023-01-11T22:15:57.210Z,100.00
2023-01-11T22:18:24.272Z,100.00
2023-01-11T22:20:51.487Z,100.00
2023-01-11T22:23:18.568Z,100.00
2023-01-11T22:25:45.616Z,100.00
2023-01-11T22:28:12.770Z,100.00
2023-01-11T22:30:39.811Z,100.00
2023-01-11T22:33:07.974Z,100.00
2023-01-11T22:35:35.137Z,100.00
2023-01-11T22:38:02.288Z,100.00
2023-01-11T22:40:29.269Z,100.00
2023-01-11T22:42:56.771Z,100.00
2023-01-11T22:45:23.940Z,100.00
2023-01-11T22:47:51.097Z,100.00
2023-01-11T22:50:18.332Z,100.00
2023-01-11T22:52:45.781Z,100.00
2023-01-11T22:55:12.829Z,100.00
2023-01-11T22:57:40.001Z,100.00
2023-01-11T23:00:08.584Z,100.00
2023-01-11T23:02:35.633Z,100.00
2023-01-11T23:05:02.736Z,100.00
2023-01-11T23:07:29.832Z,100.00
2023-01-11T23:09:56.984Z,100.00
2023-01-11T23:12:42.698Z,100.00
2023-01-11T23:15:10.464Z,100.00
2023-01-11T23:17:37.506Z,100.00
2023-01-11T23:20:05.064Z,100.00
2023-01-11T23:22:32.192Z,100.00
2023-01-11T23:24:59.261Z,100.00
2023-01-11T23:27:26.302Z,100.00
2023-01-11T23:29:53.351Z,100.00
2023-01-11T23:32:20.376Z,100.00
2023-01-11T23:34:47.633Z,100.00
2023-01-11T23:37:14.780Z,100.00
2023-01-11T23:39:41.831Z,100.00
2023-01-11T23:42:27.732Z,100.00
2023-01-11T23:44:55.258Z,100.00
2023-01-11T23:47:25.580Z,100.00
2023-01-11T23:49:54.396Z,100.00
2023-01-11T23:52:23.501Z,100.00
2023-01-11T23:54:50.897Z,100.00
2023-01-11T23:57:18.762Z,100.00
2023-01-11T23:59:45.857Z,100.00
